Time;durP1;ratioP1;P1;durP2;ratioP2;P2;SDS_P1;SDS_P2;PMS_P1;PMS_P2;Temp;Humidity;BMP_temperature;BMP_pressure;BME280_temperature;BME280_humidity;BME280_pressure;Samples;Min_cycle;Max_cycle;Signal;HPM_P1;HPM_P2
2022/04/01 00:01:22;;;;;;;0.55;0.55;;;20.60;39.30;;;;;;5060342;27;43661;-61
2022/04/01 00:03:50;;;;;;;0.82;0.60;;;20.60;39.30;;;;;;5058028;27;43528;-61
2022/04/01 00:06:17;;;;;;;1.35;0.95;;;20.60;39.30;;;;;;5060017;27;43500;-61
2022/04/01 00:08:45;;;;;;;0.75;0.50;;;20.60;39.20;;;;;;5067460;27;44677;-61
2022/04/01 00:11:12;;;;;;;1.00;0.55;;;20.60;39.20;;;;;;5062089;27;43692;-61
2022/04/01 00:13:40;;;;;;;0.98;0.50;;;20.50;39.20;;;;;;5062498;27;44004;-61
2022/04/01 00:16:07;;;;;;;0.50;0.50;;;20.50;39.30;;;;;;5055662;27;43597;-61
2022/04/01 00:18:35;;;;;;;1.00;0.70;;;20.50;39.30;;;;;;5106736;27;44230;-61
2022/04/01 00:21:02;;;;;;;0.70;0.70;;;20.50;39.40;;;;;;5094030;27;43705;-62
2022/04/01 00:23:30;;;;;;;1.15;0.60;;;20.50;39.30;;;;;;5101386;27;43461;-61
2022/04/01 00:25:57;;;;;;;0.90;0.70;;;20.50;39.50;;;;;;5116193;27;43600;-62
2022/04/01 00:28:25;;;;;;;0.55;0.52;;;20.50;39.40;;;;;;5104257;27;45666;-62
2022/04/01 00:30:54;;;;;;;0.60;0.52;;;20.50;39.40;;;;;;5057644;27;43681;-61
2022/04/01 00:33:26;;;;;;;1.38;0.50;;;20.50;39.50;;;;;;5066475;27;43495;-61
2022/04/01 00:35:54;;;;;;;0.55;0.40;;;20.50;39.50;;;;;;5093639;27;43480;-61
2022/04/01 00:38:21;;;;;;;0.55;0.55;;;20.40;39.40;;;;;;5105151;27;44746;-61
2022/04/01 00:40:51;;;;;;;1.38;0.60;;;20.40;39.40;;;;;;5098017;27;45121;-61
2022/04/01 00:43:30;;;;;;;1.23;0.93;;;20.40;39.40;;;;;;5099207;27;43459;-61
2022/04/01 00:45:58;;;;;;;0.75;0.70;;;20.40;39.40;;;;;;5077787;27;43537;-61
2022/04/01 00:48:27;;;;;;;0.70;0.50;;;20.40;39.40;;;;;;5052705;27;44113;-61
2022/04/01 00:50:55;;;;;;;0.82;0.70;;;20.30;39.40;;;;;;5101736;27;43991;-61
2022/04/01 00:53:22;;;;;;;0.77;0.77;;;20.40;39.40;;;;;;5077620;27;43448;-61
2022/04/01 00:55:50;;;;;;;0.57;0.52;;;20.30;39.40;;;;;;5066356;27;43602;-61
2022/04/01 00:58:19;;;;;;;1.30;0.60;;;20.30;39.40;;;;;;5086030;27;44671;-61
2022/04/01 01:00:47;;;;;;;0.77;0.60;;;20.30;39.40;;;;;;5072838;27;44092;-62
2022/04/01 01:03:14;;;;;;;1.27;0.57;;;20.30;39.40;;;;;;5060981;27;43558;-61
2022/04/01 01:05:42;;;;;;;0.70;0.68;;;20.30;39.40;;;;;;5090160;27;43592;-61
2022/04/01 01:08:09;;;;;;;0.73;0.70;;;20.30;39.40;;;;;;5056070;27;44997;-61
2022/04/01 01:10:37;;;;;;;1.05;0.75;;;20.20;39.30;;;;;;5045493;27;44420;-62
2022/04/01 01:13:05;;;;;;;1.00;0.70;;;20.20;39.30;;;;;;5092052;27;43515;-61
2022/04/01 01:15:36;;;;;;;0.63;0.60;;;20.30;39.40;;;;;;5063005;27;43606;-61
2022/04/01 01:18:05;;;;;;;1.23;0.68;;;20.20;39.50;;;;;;5055236;27;43824;-61
2022/04/01 01:20:33;;;;;;;0.73;0.73;;;20.20;39.40;;;;;;5043165;27;43468;-61
2022/04/01 01:23:02;;;;;;;1.08;0.57;;;20.20;39.50;;;;;;5077889;27;43452;-61
2022/04/01 01:25:34;;;;;;;0.55;0.50;;;20.10;39.60;;;;;;5105656;27;43485;-61
2022/04/01 01:28:02;;;;;;;0.73;0.73;;;20.10;39.60;;;;;;5052750;27;45770;-62
2022/04/01 01:30:30;;;;;;;0.80;0.65;;;20.10;39.60;;;;;;5104834;27;44061;-61
2022/04/01 01:32:58;;;;;;;1.10;0.90;;;20.20;39.70;;;;;;5093321;27;43485;-61
2022/04/01 01:35:27;;;;;;;0.90;0.73;;;20.10;39.50;;;;;;5100692;27;43600;-61
2022/04/01 01:37:55;;;;;;;0.88;0.75;;;20.10;39.60;;;;;;5095335;27;44703;-61
2022/04/01 01:40:24;;;;;;;0.68;0.60;;;20.10;39.70;;;;;;5121695;27;43450;-61
2022/04/01 01:42:51;;;;;;;0.77;0.60;;;20.10;39.70;;;;;;5124224;27;43385;-61
2022/04/01 01:45:19;;;;;;;0.60;0.57;;;20.00;39.70;;;;;;5120666;27;43549;-61
2022/04/01 01:47:47;;;;;;;1.23;0.70;;;20.00;39.80;;;;;;5122770;27;43782;-61
2022/04/01 01:55:46;;;;;;;0.98;0.68;;;20.00;39.80;;;;;;5121874;27;43654;-61
2022/04/01 01:58:15;;;;;;;0.90;0.90;;;20.00;39.80;;;;;;5122120;27;44072;-62
2022/04/01 02:00:43;;;;;;;1.08;0.57;;;19.90;39.80;;;;;;5121285;27;43512;-61
2022/04/01 02:03:10;;;;;;;1.38;0.68;;;20.00;39.80;;;;;;5124369;27;43471;-62
2022/04/01 02:05:38;;;;;;;0.88;0.70;;;19.90;39.70;;;;;;5121731;27;43637;-61
2022/04/01 02:08:06;;;;;;;0.63;0.60;;;19.90;39.80;;;;;;5122247;27;43942;-61
2022/04/01 02:10:34;;;;;;;0.80;0.60;;;19.90;39.80;;;;;;5122594;27;43503;-61
2022/04/01 02:13:03;;;;;;;1.95;0.82;;;19.90;39.80;;;;;;5121247;27;43418;-61
2022/04/01 02:15:32;;;;;;;0.60;0.60;;;19.90;39.80;;;;;;5119171;27;43667;-61
2022/04/01 02:18:02;;;;;;;;;;;19.90;39.80;;;;;;5121402;27;43794;-61
2022/04/01 02:20:31;;;;;;;0.68;0.50;;;19.90;39.90;;;;;;5121922;27;43470;-61
2022/04/01 02:22:58;;;;;;;1.75;0.80;;;19.80;39.80;;;;;;5120655;27;43489;-61
2022/04/01 02:25:27;;;;;;;0.65;0.63;;;19.80;39.90;;;;;;5121952;27;43584;-61
2022/04/01 02:27:56;;;;;;;1.58;0.82;;;19.80;39.90;;;;;;5121968;27;43948;-61
2022/04/01 02:30:25;;;;;;;0.77;0.50;;;19.80;39.90;;;;;;5122454;27;43954;-61
2022/04/01 02:33:18;;;;;;;0.88;0.88;;;19.80;39.90;;;;;;5121812;27;43502;-61
2022/04/01 02:35:51;;;;;;;2.10;0.63;;;19.80;39.90;;;;;;5121356;27;43541;-61
2022/04/01 02:38:19;;;;;;;0.80;0.77;;;19.80;40.00;;;;;;5105529;27;45016;-61
2022/04/01 02:40:47;;;;;;;0.70;0.70;;;19.70;39.90;;;;;;5096974;27;43536;-61
2022/04/01 02:43:14;;;;;;;1.25;0.70;;;19.70;39.90;;;;;;5049247;27;43440;-61
2022/04/01 02:45:44;;;;;;;1.15;0.73;;;19.70;39.80;;;;;;5098294;27;43597;-61
2022/04/01 02:48:14;;;;;;;0.77;0.68;;;19.70;39.80;;;;;;5081308;27;44679;-61
2022/04/01 02:51:02;;;;;;;1.50;0.80;;;19.70;39.90;;;;;;5074774;27;43707;-60
2022/04/01 02:53:30;;;;;;;0.90;0.50;;;19.70;39.90;;;;;;5078994;27;43438;-61
2022/04/01 02:55:57;;;;;;;0.50;0.50;;;19.70;39.90;;;;;;5098737;27;43617;-61
2022/04/01 02:58:25;;;;;;;1.65;0.80;;;19.70;40.00;;;;;;5096915;27;44907;-61
2022/04/01 03:00:53;;;;;;;1.15;0.60;;;19.60;39.80;;;;;;5099941;27;43540;-61
2022/04/01 03:03:22;;;;;;;0.73;0.63;;;19.60;39.90;;;;;;5103160;27;43566;-60
2022/04/01 03:05:50;;;;;;;0.40;0.40;;;19.60;39.90;;;;;;5097781;27;43608;-61
2022/04/01 03:08:17;;;;;;;0.70;0.70;;;19.60;39.80;;;;;;5096825;27;43803;-61
2022/04/01 03:10:45;;;;;;;0.60;0.60;;;19.60;40.00;;;;;;5047150;27;43978;-61
2022/04/01 03:13:12;;;;;;;0.80;0.80;;;19.60;39.90;;;;;;5084125;27;43452;-61
2022/04/01 03:16:15;;;;;;;1.27;0.68;;;19.60;40.00;;;;;;5097560;27;43467;-61
2022/04/01 03:18:59;;;;;;;0.80;0.70;;;19.50;40.00;;;;;;5093521;27;44031;-62
2022/04/01 03:21:29;;;;;;;0.70;0.70;;;19.50;40.10;;;;;;5113183;27;43506;-61
2022/04/01 03:23:57;;;;;;;0.80;0.80;;;19.50;40.10;;;;;;5056026;27;43493;-61
2022/04/01 03:26:24;;;;;;;0.70;0.65;;;19.50;40.10;;;;;;5106476;27;43591;-61
2022/04/01 03:29:02;;;;;;;1.20;0.75;;;19.50;40.10;;;;;;5104636;27;44990;-62
2022/04/01 03:31:31;;;;;;;1.08;0.98;;;19.50;40.10;;;;;;5056027;27;43794;-61
2022/04/01 03:34:02;;;;;;;0.70;0.70;;;19.50;40.10;;;;;;5098618;27;43494;-60
2022/04/01 03:36:31;;;;;;;0.90;0.80;;;19.50;40.10;;;;;;5110343;27;43529;-61
2022/04/01 03:38:59;;;;;;;0.85;0.85;;;19.50;40.00;;;;;;5100453;27;44067;-62
2022/04/01 03:41:40;;;;;;;0.77;0.70;;;19.50;40.10;;;;;;5105745;27;43462;-61
2022/04/01 03:44:09;;;;;;;0.60;0.60;;;19.50;40.10;;;;;;5095172;27;43477;-61
2022/04/01 03:46:47;;;;;;;0.80;0.70;;;19.40;40.00;;;;;;5091061;27;43446;-61
2022/04/01 03:49:22;;;;;;;0.80;0.80;;;19.40;40.10;;;;;;5097888;27;44072;-61
2022/04/01 03:51:52;;;;;;;1.02;0.70;;;19.40;40.00;;;;;;5105282;27;43525;-61
2022/04/01 03:54:19;;;;;;;0.70;0.70;;;19.40;40.00;;;;;;5121052;27;43587;-61
2022/04/01 03:57:03;;;;;;;1.13;0.95;;;19.40;40.10;;;;;;5040433;27;43561;-61
2022/04/01 03:59:52;;;;;;;0.60;0.50;;;19.40;40.20;;;;;;5088579;27;44038;-61
2022/04/01 04:02:41;;;;;;;0.98;0.68;;;19.30;40.10;;;;;;5064131;27;43817;-61
2022/04/01 04:05:10;;;;;;;1.33;0.93;;;19.30;40.00;;;;;;5104990;27;43520;-61
2022/04/01 04:07:39;;;;;;;0.73;0.70;;;19.30;40.10;;;;;;5105275;27;43517;-60
2022/04/01 04:10:15;;;;;;;1.00;0.70;;;19.30;40.10;;;;;;5056170;27;45412;-62
2022/04/01 04:12:57;;;;;;;0.47;0.47;;;19.30;40.10;;;;;;5121392;27;43391;-60
2022/04/01 04:15:39;;;;;;;0.73;0.73;;;19.30;40.10;;;;;;5104907;27;43426;-61
2022/04/01 04:18:13;;;;;;;0.90;0.70;;;19.30;40.20;;;;;;5101561;27;43574;-61
2022/04/01 04:20:55;;;;;;;0.93;0.70;;;19.20;40.10;;;;;;5077283;27;44028;-61
2022/04/01 04:23:53;;;;;;;0.95;0.70;;;19.20;40.20;;;;;;5098655;27;43476;-61
2022/04/01 04:26:46;;;;;;;1.20;0.70;;;19.20;40.30;;;;;;5101778;27;43498;-61
2022/04/01 04:29:16;;;;;;;1.02;0.65;;;19.20;40.90;;;;;;5104590;27;43490;-61
2022/04/01 04:32:05;;;;;;;0.77;0.77;;;19.20;40.20;;;;;;5053783;27;44974;-61
2022/04/01 04:34:43;;;;;;;0.70;0.70;;;19.20;40.20;;;;;;5104185;27;43501;-61
2022/04/01 04:37:16;;;;;;;1.05;0.60;;;19.20;40.30;;;;;;5107460;27;43403;-61
2022/04/01 04:39:50;;;;;;;1.20;0.85;;;19.10;40.20;;;;;;5094198;27;43443;-61
2022/04/01 04:42:18;;;;;;;0.82;0.75;;;19.10;40.20;;;;;;5084466;27;43822;-61
2022/04/01 04:44:46;;;;;;;0.77;0.77;;;19.10;40.20;;;;;;5104503;27;43855;-61
2022/04/01 04:47:25;;;;;;;0.90;0.80;;;19.10;40.20;;;;;;5121046;27;44572;-61
2022/04/01 04:49:57;;;;;;;1.10;1.00;;;19.10;40.30;;;;;;5104444;27;43483;-61
2022/04/01 04:52:32;;;;;;;1.35;0.80;;;19.10;40.20;;;;;;5089835;27;44692;-61
2022/04/01 04:55:06;;;;;;;0.77;0.65;;;19.10;40.20;;;;;;5108732;27;43665;-61
2022/04/01 04:58:02;;;;;;;0.82;0.63;;;19.10;40.20;;;;;;5052878;27;43383;-61
2022/04/01 05:00:30;;;;;;;1.25;0.85;;;19.10;40.30;;;;;;5098954;27;44268;-61
2022/04/01 05:03:21;;;;;;;1.58;0.80;;;19.00;40.30;;;;;;5099314;27;45044;-61
2022/04/01 05:05:53;;;;;;;0.85;0.80;;;19.00;40.40;;;;;;5059768;27;43661;-61
2022/04/01 05:08:35;;;;;;;0.75;0.75;;;19.00;40.40;;;;;;5057082;27;43888;-61
2022/04/01 05:11:13;;;;;;;0.90;0.60;;;19.00;40.30;;;;;;5058582;27;44084;-61
2022/04/01 05:13:49;;;;;;;0.98;0.70;;;19.00;40.30;;;;;;5081419;27;44040;-62
2022/04/01 05:16:45;;;;;;;1.02;0.88;;;19.00;40.30;;;;;;5095273;27;43455;-61
2022/04/01 05:19:13;;;;;;;1.30;0.70;;;19.00;40.30;;;;;;5099193;27;43424;-61
2022/04/01 05:22:05;;;;;;;0.80;0.70;;;18.90;40.30;;;;;;5103857;27;43588;-60
2022/04/01 05:24:53;;;;;;;0.90;0.60;;;18.90;41.00;;;;;;5116888;27;43891;-61
2022/04/01 05:27:28;;;;;;;2.40;0.90;;;18.90;40.40;;;;;;5096832;27;43545;-61
2022/04/01 05:30:20;;;;;;;1.02;0.55;;;18.90;40.50;;;;;;5103779;27;43403;-61
2022/04/01 05:33:00;;;;;;;;;;;18.90;40.50;;;;;;5101313;27;43498;-61
2022/04/01 05:35:35;;;;;;;0.88;0.60;;;18.80;40.50;;;;;;5054377;27;44085;-60
2022/04/01 05:38:10;;;;;;;1.35;0.90;;;18.80;40.50;;;;;;5096789;27;43630;-61
2022/04/01 05:40:40;;;;;;;1.00;0.90;;;18.80;40.50;;;;;;5102094;27;43553;-61
2022/04/01 05:43:14;;;;;;;1.90;1.05;;;18.80;40.60;;;;;;5108563;27;43539;-61
2022/04/01 05:46:01;;;;;;;0.63;0.63;;;18.70;40.40;;;;;;5056380;27;44748;-62
2022/04/01 05:48:30;;;;;;;0.80;0.80;;;18.80;40.50;;;;;;5058672;27;43432;-62
2022/04/01 05:51:02;;;;;;;0.70;0.70;;;18.70;40.50;;;;;;5106301;27;43490;-61
2022/04/01 05:53:37;;;;;;;1.02;0.77;;;18.70;40.50;;;;;;5103439;27;43486;-61
2022/04/01 05:56:07;;;;;;;1.10;0.88;;;18.80;40.60;;;;;;5112605;27;43782;-62
2022/04/01 05:58:40;;;;;;;1.90;0.90;;;18.70;40.50;;;;;;5095583;27;44144;-62
2022/04/01 06:01:26;;;;;;;2.53;0.80;;;18.80;40.60;;;;;;5097114;27;43451;-62
2022/04/01 06:03:54;;;;;;;0.82;0.77;;;18.70;41.10;;;;;;5112066;27;43589;-62
2022/04/01 06:06:32;;;;;;;1.45;0.90;;;18.80;40.50;;;;;;5105009;27;44883;-62
2022/04/01 06:09:14;;;;;;;0.75;0.55;;;18.80;40.60;;;;;;5101519;27;43999;-62
2022/04/01 06:12:32;;;;;;;0.80;0.80;;;18.70;40.60;;;;;;5083548;27;43430;-61
2022/04/01 06:15:37;;;;;;;1.05;0.70;;;18.70;40.60;;;;;;5046836;27;43617;-61
2022/04/01 06:18:56;;;;;;;0.82;0.70;;;18.70;40.70;;;;;;5082090;27;45014;-62
2022/04/01 06:21:26;;;;;;;1.30;0.90;;;18.70;40.70;;;;;;5096518;27;43473;-62
2022/04/01 06:24:07;;;;;;;1.08;0.68;;;18.70;40.70;;;;;;5105392;27;43483;-62
2022/04/01 06:26:46;;;;;;;0.65;0.63;;;18.80;40.70;;;;;;5089757;27;43533;-62
2022/04/01 06:29:35;;;;;;;0.63;0.63;;;18.70;40.70;;;;;;5096868;27;44063;-62
2022/04/01 06:32:05;;;;;;;0.70;0.60;;;18.80;40.70;;;;;;5048551;27;43551;-62
2022/04/01 06:34:58;;;;;;;0.60;0.60;;;18.70;40.70;;;;;;5104050;27;43478;-61
2022/04/01 06:37:55;;;;;;;0.60;0.60;;;18.80;40.80;;;;;;5092108;27;43541;-62
2022/04/01 06:40:29;;;;;;;1.08;0.75;;;18.80;40.80;;;;;;5124110;27;43740;-62
2022/04/01 06:42:57;;;;;;;0.82;0.82;;;18.80;40.80;;;;;;5123648;27;43945;-62
2022/04/01 06:45:43;;;;;;;0.60;0.60;;;18.80;40.80;;;;;;5124037;27;43588;-62
2022/04/01 06:48:46;;;;;;;0.57;0.55;;;18.80;40.80;;;;;;5111531;27;43544;-62
2022/04/01 06:51:32;;;;;;;2.35;0.85;;;18.80;40.80;;;;;;5119244;27;43880;-63
2022/04/01 06:54:29;;;;;;;0.93;0.80;;;18.80;40.80;;;;;;5111067;27;43586;-63
2022/04/01 06:57:14;;;;;;;0.60;0.60;;;18.90;40.80;;;;;;5127162;27;43540;-63
2022/04/01 07:00:08;;;;;;;1.15;0.73;;;18.90;40.90;;;;;;5106766;27;43613;-62
2022/04/01 07:02:36;;;;;;;0.60;0.60;;;18.90;40.90;;;;;;5118429;27;44433;-62
2022/04/01 07:05:05;;;;;;;1.00;0.80;;;18.90;40.80;;;;;;5126681;27;44000;-62
2022/04/01 07:07:33;;;;;;;0.50;0.50;;;18.90;40.80;;;;;;5126041;27;43600;-62
2022/04/01 07:10:01;;;;;;;1.48;0.80;;;18.90;40.80;;;;;;5124966;27;43485;-62
2022/04/01 07:12:29;;;;;;;0.98;0.80;;;19.00;40.80;;;;;;5126485;27;45294;-62
2022/04/01 07:14:56;;;;;;;1.25;0.70;;;18.90;40.70;;;;;;5124605;27;43708;-62
2022/04/01 07:17:25;;;;;;;1.10;0.98;;;18.90;40.70;;;;;;5126544;27;43535;-62
2022/04/01 07:19:53;;;;;;;1.20;0.68;;;19.00;40.70;;;;;;5123435;27;43459;-62
2022/04/01 07:22:21;;;;;;;0.90;0.65;;;19.00;41.30;;;;;;5126217;27;43768;-60
2022/04/01 07:24:48;;;;;;;0.65;0.65;;;19.00;40.70;;;;;;5125034;27;43638;-60
2022/04/01 07:27:17;;;;;;;0.93;0.80;;;19.00;40.60;;;;;;5125648;27;43372;-58
2022/04/01 07:29:44;;;;;;;1.13;0.90;;;19.00;40.80;;;;;;5124760;27;43463;-60
2022/04/01 07:32:31;;;;;;;2.42;1.50;;;19.00;40.80;;;;;;5125320;27;44658;-58
2022/04/01 07:35:00;;;;;;;5.22;1.65;;;19.00;41.20;;;;;;5123965;27;43693;-60
2022/04/01 07:37:29;;;;;;;1.75;1.23;;;19.00;41.10;;;;;;5124788;27;44124;-60
2022/04/01 07:40:18;;;;;;;1.98;1.50;;;19.10;41.00;;;;;;5123523;27;43496;-60
2022/04/01 07:42:46;;;;;;;2.05;1.50;;;19.20;40.90;;;;;;5125909;27;43784;-60
2022/04/01 07:45:13;;;;;;;2.83;1.40;;;19.30;40.90;;;;;;5125471;27;43697;-61
2022/04/01 07:47:44;;;;;;;3.15;1.77;;;19.40;40.80;;;;;;5124350;27;43480;-62
2022/04/01 07:50:14;;;;;;;1.55;1.00;;;19.50;41.80;;;;;;5125636;27;43453;-59
2022/04/01 07:52:43;;;;;;;1.95;1.33;;;19.70;40.70;;;;;;5125545;27;43803;-60
2022/04/01 07:55:14;;;;;;;3.53;1.38;;;19.90;40.60;;;;;;5125652;27;43808;-60
2022/04/01 07:57:42;;;;;;;2.20;1.42;;;20.00;40.50;;;;;;5124410;27;43456;-62
2022/04/01 08:00:13;;;;;;;;;;;20.20;40.50;;;;;;5121886;27;43423;-62
2022/04/01 08:02:41;;;;;;;2.08;1.25;;;20.40;40.40;;;;;;5125456;27;43796;-63
2022/04/01 08:05:09;;;;;;;1.38;1.20;;;20.50;40.40;;;;;;5124239;27;44082;-61
2022/04/01 08:07:37;;;;;;;4.57;1.10;;;20.70;40.30;;;;;;5124411;27;43428;-61
2022/04/01 08:10:06;;;;;;;1.48;1.20;;;20.80;40.00;;;;;;5123470;27;43437;-61
2022/04/01 08:12:40;;;;;;;3.35;1.40;;;21.00;39.80;;;;;;5125241;27;43937;-61
2022/04/01 08:15:08;;;;;;;1.58;1.10;;;21.20;39.90;;;;;;5123714;27;43685;-61
2022/04/01 08:17:36;;;;;;;2.95;1.02;;;21.30;39.80;;;;;;5126124;27;43402;-60
2022/04/01 08:20:05;;;;;;;2.72;1.10;;;21.50;39.70;;;;;;5124035;27;43603;-61
2022/04/01 08:22:33;;;;;;;3.45;1.17;;;21.70;39.60;;;;;;5123999;27;44093;-61
2022/04/01 08:25:00;;;;;;;1.35;1.25;;;21.80;39.40;;;;;;5120695;27;43432;-61
2022/04/01 08:27:28;;;;;;;1.90;1.10;;;22.00;39.20;;;;;;5125836;27;43716;-61
2022/04/01 08:29:59;;;;;;;2.60;1.23;;;22.20;39.10;;;;;;5119783;27;43434;-62
2022/04/01 08:32:29;;;;;;;2.42;1.20;;;22.40;39.00;;;;;;5113252;27;44092;-61
2022/04/01 08:34:58;;;;;;;1.83;1.20;;;22.50;38.80;;;;;;5124855;27;44228;-61
2022/04/01 08:37:26;;;;;;;4.50;1.25;;;22.70;38.60;;;;;;5121564;27;43503;-62
2022/04/01 08:39:53;;;;;;;1.48;0.80;;;22.90;38.40;;;;;;5094278;27;43473;-62
2022/04/01 08:42:22;;;;;;;2.63;1.20;;;23.10;38.30;;;;;;5040645;27;44715;-59
2022/04/01 08:44:51;;;;;;;1.02;0.80;;;23.20;37.90;;;;;;5042434;27;43989;-59
2022/04/01 08:47:19;;;;;;;1.23;1.10;;;23.30;37.60;;;;;;5055258;27;43499;-60
2022/04/01 08:49:47;;;;;;;1.30;1.20;;;23.50;37.30;;;;;;5045895;27;43496;-59
2022/04/01 08:52:14;;;;;;;2.97;1.10;;;23.60;37.10;;;;;;5042798;27;44730;-59
2022/04/01 08:54:42;;;;;;;1.63;0.95;;;23.70;36.90;;;;;;5059079;27;43475;-60
2022/04/01 08:57:10;;;;;;;1.10;0.80;;;23.80;36.80;;;;;;5042089;27;44013;-60
2022/04/01 08:59:37;;;;;;;1.35;1.00;;;23.80;36.80;;;;;;5082752;27;43507;-60
2022/04/01 09:02:08;;;;;;;1.45;1.10;;;23.80;36.80;;;;;;5104022;27;43940;-60
2022/04/01 09:04:36;;;;;;;2.72;1.00;;;23.80;36.80;;;;;;5088214;27;43602;-60
2022/04/01 09:07:12;;;;;;;3.80;0.70;;;23.80;36.80;;;;;;5032831;27;43501;-60
2022/04/01 09:09:40;;;;;;;1.88;0.80;;;23.80;37.00;;;;;;5093503;27;43554;-60
2022/04/01 09:12:17;;;;;;;2.42;0.90;;;23.80;36.80;;;;;;5044200;27;44957;-60
2022/04/01 09:14:53;;;;;;;1.08;0.98;;;23.80;36.70;;;;;;5042205;27;43505;-60
2022/04/01 09:17:21;;;;;;;3.13;1.23;;;23.80;36.50;;;;;;5030858;27;44065;-60
2022/04/01 09:20:02;;;;;;;0.80;0.50;;;23.90;36.70;;;;;;5051965;27;43494;-60
2022/04/01 09:22:30;;;;;;;0.80;0.80;;;23.90;36.50;;;;;;5048901;27;44073;-60
2022/04/01 09:25:03;;;;;;;0.80;0.70;;;23.90;36.90;;;;;;5050004;27;43804;-60
2022/04/01 09:27:43;;;;;;;0.82;0.75;;;23.90;36.60;;;;;;5087355;27;43431;-60
2022/04/01 09:30:17;;;;;;;2.38;1.15;;;23.80;36.40;;;;;;5047030;27;43620;-60
2022/04/01 09:32:47;;;;;;;1.05;0.90;;;23.80;36.50;;;;;;5061896;27;44052;-60
2022/04/01 09:35:16;;;;;;;2.93;0.73;;;23.70;36.90;;;;;;5045166;27;43871;-61
2022/04/01 09:37:49;;;;;;;2.00;0.88;;;23.70;36.70;;;;;;5044570;27;43498;-61
2022/04/01 09:40:21;;;;;;;1.70;0.75;;;23.70;36.70;;;;;;5043510;27;43612;-59
2022/04/01 09:42:55;;;;;;;2.15;0.90;;;23.70;36.70;;;;;;5049024;27;44039;-61
2022/04/01 09:45:25;;;;;;;1.73;0.90;;;23.70;36.70;;;;;;5046753;27;43577;-60
2022/04/01 09:48:16;;;;;;;1.45;0.77;;;23.70;36.70;;;;;;5055116;27;43596;-60
2022/04/01 09:50:54;;;;;;;0.85;0.70;;;23.70;36.80;;;;;;5060768;27;43526;-60
2022/04/01 09:53:25;;;;;;;0.70;0.70;;;23.70;36.70;;;;;;5050004;27;44036;-60
2022/04/01 09:55:53;;;;;;;0.80;0.70;;;23.70;36.70;;;;;;5032618;27;43416;-60
2022/04/01 09:58:23;;;;;;;1.88;0.70;;;23.60;37.00;;;;;;5066403;27;43547;-60
2022/04/01 10:00:52;;;;;;;1.13;0.80;;;23.60;36.20;;;;;;5041729;27;43557;-59
2022/04/01 10:03:20;;;;;;;0.88;0.88;;;23.50;36.50;;;;;;5046013;27;44323;-59
2022/04/01 10:05:50;;;;;;;1.17;0.93;;;23.40;36.40;;;;;;5062055;27;43588;-60
2022/04/01 10:08:18;;;;;;;;;;;23.40;36.80;;;;;;5038364;27;43515;-59
2022/04/01 10:10:47;;;;;;;1.08;0.90;;;23.40;37.00;;;;;;5041038;27;43583;-60
2022/04/01 10:13:24;;;;;;;2.00;1.05;;;23.30;37.10;;;;;;5034521;27;44973;-60
2022/04/01 10:15:54;;;;;;;1.60;1.10;;;23.40;37.10;;;;;;5100160;27;43439;-59
2022/04/01 10:18:46;;;;;;;0.80;0.80;;;23.40;37.10;;;;;;5051497;27;43546;-61
2022/04/01 10:21:18;;;;;;;2.22;0.93;;;23.40;37.20;;;;;;5050789;27;43453;-60
2022/04/01 10:23:59;;;;;;;0.90;0.75;;;23.40;37.20;;;;;;5092149;27;44472;-59
2022/04/01 10:26:33;;;;;;;0.90;0.70;;;23.40;37.10;;;;;;5033308;27;43744;-59
2022/04/01 10:29:02;;;;;;;1.77;1.00;;;23.40;37.10;;;;;;5058738;27;43473;-60
2022/04/01 10:31:30;;;;;;;1.08;0.77;;;23.50;37.20;;;;;;5053266;27;43672;-59
2022/04/01 10:34:18;;;;;;;2.55;1.00;;;23.50;37.20;;;;;;5067938;27;43795;-60
2022/04/01 10:36:54;;;;;;;1.25;0.82;;;23.50;37.00;;;;;;5053737;27;43583;-59
2022/04/01 10:39:24;;;;;;;2.05;1.13;;;23.50;36.90;;;;;;5052233;27;43433;-59
2022/04/01 10:42:07;;;;;;;1.03;0.80;;;23.50;37.10;;;;;;5050654;27;43453;-60
2022/04/01 10:44:56;;;;;;;0.85;0.85;;;23.50;37.90;;;;;;5048189;27;44076;-60
2022/04/01 10:51:36;;;;;;;0.95;0.80;;;23.50;37.20;;;;;;5049130;27;43485;-60
2022/04/01 10:53:45;;;;;;;1.45;0.82;;;23.40;37.40;;;;;;5057290;27;43581;-60
2022/04/01 10:56:24;;;;;;;1.35;0.90;;;23.40;37.30;;;;;;5034611;27;43797;-60
2022/04/01 10:59:12;;;;;;;0.70;0.70;;;23.30;37.40;;;;;;5047346;27;43533;-59
2022/04/01 11:01:51;;;;;;;1.23;0.80;;;23.30;37.50;;;;;;5035300;27;43486;-60
2022/04/01 11:04:22;;;;;;;;;;;23.20;37.50;;;;;;5088623;27;43554;-60
2022/04/01 11:06:56;;;;;;;0.60;0.52;;;23.20;37.70;;;;;;5047057;27;44288;-59
2022/04/01 11:09:53;;;;;;;1.55;0.90;;;23.10;37.70;;;;;;5085270;27;43538;-59
2022/04/01 11:12:32;;;;;;;0.77;0.70;;;23.10;37.80;;;;;;5049621;27;43468;-61
2022/04/01 11:17:34;;;;;;;0.60;0.60;;;23.10;37.90;;;;;;5051712;27;44030;-60
2022/04/01 11:20:35;;;;;;;0.70;0.70;;;23.10;38.00;;;;;;5076527;27;43974;-60
2022/04/01 11:23:06;;;;;;;1.05;0.88;;;23.00;38.00;;;;;;5053308;27;43455;-59
2022/04/01 11:25:35;;;;;;;1.55;0.75;;;23.00;38.20;;;;;;5076899;27;43852;-60
2022/04/01 11:28:06;;;;;;;1.13;0.50;;;23.00;37.90;;;;;;5046980;27;43990;-60
2022/04/01 11:31:02;;;;;;;0.70;0.57;;;22.90;37.90;;;;;;5038231;27;44001;-59
2022/04/01 11:33:30;;;;;;;1.23;0.60;;;22.80;37.90;;;;;;5051929;27;43424;-59
2022/04/01 11:35:58;;;;;;;1.35;0.90;;;22.80;38.00;;;;;;5039313;27;43490;-59
2022/04/01 11:38:27;;;;;;;1.60;0.77;;;22.70;38.00;;;;;;5051278;27;44074;-59
2022/04/01 11:40:58;;;;;;;0.90;0.70;;;22.70;38.10;;;;;;5033977;27;43489;-60
2022/04/01 11:43:27;;;;;;;1.35;0.70;;;22.70;38.10;;;;;;5037558;27;43456;-59
2022/04/01 11:46:02;;;;;;;0.68;0.68;;;22.60;38.10;;;;;;5036348;27;43592;-58
2022/04/01 11:48:34;;;;;;;0.77;0.77;;;22.60;38.20;;;;;;5035539;27;44045;-60
2022/04/01 11:51:09;;;;;;;1.20;0.70;;;22.50;38.20;;;;;;5037834;27;43573;-59
2022/04/01 11:53:49;;;;;;;1.58;0.90;;;22.50;38.20;;;;;;5041171;27;43446;-60
2022/04/01 11:56:20;;;;;;;1.48;0.82;;;22.50;38.30;;;;;;5039769;28;43525;-60
2022/04/01 11:58:50;;;;;;;1.42;0.70;;;22.40;38.30;;;;;;5041815;27;44961;-59
2022/04/01 12:01:20;;;;;;;0.60;0.60;;;22.40;38.30;;;;;;5046260;27;43999;-60
2022/04/01 12:03:48;;;;;;;0.80;0.60;;;22.40;38.30;;;;;;5084051;27;43457;-59
2022/04/01 12:09:07;;;;;;;0.82;0.68;;;22.30;38.40;;;;;;5043251;27;44028;-60
2022/04/01 12:11:45;;;;;;;1.45;0.85;;;22.30;38.50;;;;;;5055492;27;43502;-60
2022/04/01 12:14:21;;;;;;;0.80;0.60;;;22.30;38.50;;;;;;5050543;27;43510;-60
2022/04/01 12:16:48;;;;;;;0.80;0.80;;;22.20;38.50;;;;;;5042995;27;43477;-59
2022/04/01 12:19:20;;;;;;;2.28;0.70;;;22.20;38.50;;;;;;5036979;27;44069;-60
2022/04/01 12:21:54;;;;;;;1.23;0.77;;;22.20;38.60;;;;;;5056941;27;43562;-59
2022/04/01 12:24:25;;;;;;;1.30;0.60;;;22.20;38.70;;;;;;5040138;27;43464;-59
2022/04/01 12:26:54;;;;;;;2.10;0.60;;;22.10;38.80;;;;;;5118923;27;43584;-59
2022/04/01 12:29:24;;;;;;;2.10;0.77;;;22.10;38.70;;;;;;5044885;27;44971;-59
2022/04/01 12:32:03;;;;;;;1.80;0.65;;;22.10;38.60;;;;;;5045692;27;43513;-60
2022/04/01 12:34:30;;;;;;;3.33;1.10;;;22.10;38.60;;;;;;5048172;27;43566;-59
2022/04/01 12:37:04;;;;;;;1.15;0.60;;;22.00;38.60;;;;;;5069920;27;43660;-59
2022/04/01 12:39:34;;;;;;;1.73;0.75;;;22.00;38.60;;;;;;5085472;27;44017;-59
2022/04/01 12:42:12;;;;;;;0.68;0.47;;;22.00;38.70;;;;;;5046929;27;43544;-59
2022/04/01 12:44:41;;;;;;;1.92;0.65;;;22.00;38.60;;;;;;5072873;27;43537;-59
2022/04/01 12:47:09;;;;;;;2.38;0.75;;;21.90;38.40;;;;;;5039205;27;43584;-59
2022/04/01 12:49:41;;;;;;;1.55;0.70;;;21.80;38.50;;;;;;5043392;27;45129;-59
2022/04/01 12:52:17;;;;;;;3.65;0.80;;;21.80;38.60;;;;;;5045043;27;43508;-59
2022/04/01 12:54:50;;;;;;;1.77;0.63;;;21.70;38.60;;;;;;5042388;27;43473;-59
2022/04/01 12:57:19;;;;;;;2.03;0.75;;;21.70;38.70;;;;;;5034173;27;43560;-59
2022/04/01 12:59:49;;;;;;;1.00;0.80;;;21.70;38.70;;;;;;5036756;27;44028;-59
2022/04/01 13:02:23;;;;;;;0.95;0.60;;;21.70;38.80;;;;;;5036281;27;43551;-59
2022/04/01 13:04:57;;;;;;;2.15;0.70;;;21.70;38.90;;;;;;5032077;27;44198;-59
2022/04/01 13:07:30;;;;;;;1.67;0.85;;;21.60;38.80;;;;;;5047394;27;43480;-59
2022/04/01 13:09:57;;;;;;;0.77;0.65;;;21.60;39.00;;;;;;5045644;27;44963;-59
2022/04/01 13:12:40;;;;;;;0.88;0.77;;;21.60;39.00;;;;;;5043276;27;43598;-59
2022/04/01 13:15:10;;;;;;;0.57;0.57;;;21.60;39.10;;;;;;5040838;27;43550;-59
2022/04/01 13:17:52;;;;;;;0.65;0.55;;;21.50;39.00;;;;;;5051995;27;43500;-60
2022/04/01 13:20:20;;;;;;;;;;;21.50;39.10;;;;;;5041227;27;43905;-60
2022/04/01 13:22:48;;;;;;;0.98;0.63;;;21.50;39.00;;;;;;5055489;27;43865;-59
2022/04/01 13:25:16;;;;;;;1.05;0.57;;;21.50;39.20;;;;;;5037445;27;43500;-59
2022/04/01 13:27:45;;;;;;;0.70;0.68;;;21.40;39.10;;;;;;5034254;27;44070;-59
2022/04/01 13:30:14;;;;;;;0.70;0.70;;;21.40;38.90;;;;;;5035619;27;44040;-59
2022/04/01 13:32:42;;;;;;;1.83;0.82;;;21.50;38.80;;;;;;5075296;27;43993;-59
2022/04/01 13:35:11;;;;;;;1.02;0.70;;;21.50;38.80;;;;;;5049186;27;43485;-59